sensor_id;sensor_type;location;lat;lon;timestamp;P1;durP1;ratioP1;P2;durP2;ratioP2
34060;SDS011;20336;-33.424;-70.638;2023-08-07T00:01:13;22.63;;;12.33;;
34060;SDS011;20336;-33.424;-70.638;2023-08-07T00:03:39;22.53;;;13.10;;
34060;SDS011;20336;-33.424;-70.638;2023-08-07T00:06:06;20.77;;;12.07;;
34060;SDS011;20336;-33.424;-70.638;2023-08-07T00:08:35;26.63;;;13.43;;
34060;SDS011;20336;-33.424;-70.638;2023-08-07T00:11:09;20.37;;;12.67;;
34060;SDS011;20336;-33.424;-70.638;2023-08-07T00:13:36;25.63;;;13.70;;
34060;SDS011;20336;-33.424;-70.638;2023-08-07T00:16:03;22.63;;;13.13;;
34060;SDS011;20336;-33.424;-70.638;2023-08-07T00:18:30;24.40;;;13.03;;
34060;SDS011;20336;-33.424;-70.638;2023-08-07T00:20:57;23.70;;;13.10;;
34060;SDS011;20336;-33.424;-70.638;2023-08-07T00:23:24;24.27;;;12.70;;
34060;SDS011;20336;-33.424;-70.638;2023-08-07T00:25:51;22.50;;;13.17;;
34060;SDS011;20336;-33.424;-70.638;2023-08-07T00:28:18;20.80;;;11.70;;
34060;SDS011;20336;-33.424;-70.638;2023-08-07T00:30:47;21.30;;;12.63;;
34060;SDS011;20336;-33.424;-70.638;2023-08-07T00:33:14;20.20;;;11.67;;
34060;SDS011;20336;-33.424;-70.638;2023-08-07T00:35:41;22.83;;;11.77;;
34060;SDS011;20336;-33.424;-70.638;2023-08-07T00:38:08;22.43;;;13.73;;
34060;SDS011;20336;-33.424;-70.638;2023-08-07T00:40:38;22.17;;;12.60;;
34060;SDS011;20336;-33.424;-70.638;2023-08-07T00:43:06;20.73;;;12.77;;
34060;SDS011;20336;-33.424;-70.638;2023-08-07T00:45:34;25.00;;;12.50;;
34060;SDS011;20336;-33.424;-70.638;2023-08-07T00:48:02;23.23;;;11.83;;
34060;SDS011;20336;-33.424;-70.638;2023-08-07T00:50:29;22.00;;;12.00;;
34060;SDS011;20336;-33.424;-70.638;2023-08-07T00:52:55;29.00;;;12.13;;
34060;SDS011;20336;-33.424;-70.638;2023-08-07T00:55:22;20.00;;;12.10;;
34060;SDS011;20336;-33.424;-70.638;2023-08-07T00:57:49;23.37;;;12.17;;
34060;SDS011;20336;-33.424;-70.638;2023-08-07T01:00:16;23.27;;;12.73;;
34060;SDS011;20336;-33.424;-70.638;2023-08-07T01:02:44;20.67;;;11.80;;
34060;SDS011;20336;-33.424;-70.638;2023-08-07T01:05:14;20.27;;;11.47;;
34060;SDS011;20336;-33.424;-70.638;2023-08-07T01:07:41;20.07;;;12.97;;
34060;SDS011;20336;-33.424;-70.638;2023-08-07T01:10:08;21.27;;;12.43;;
34060;SDS011;20336;-33.424;-70.638;2023-08-07T01:12:41;21.33;;;12.07;;
34060;SDS011;20336;-33.424;-70.638;2023-08-07T01:15:14;22.07;;;12.17;;
34060;SDS011;20336;-33.424;-70.638;2023-08-07T01:17:42;25.40;;;14.23;;
34060;SDS011;20336;-33.424;-70.638;2023-08-07T01:20:10;22.67;;;12.83;;
34060;SDS011;20336;-33.424;-70.638;2023-08-07T01:22:37;22.23;;;13.10;;
34060;SDS011;20336;-33.424;-70.638;2023-08-07T01:25:04;26.27;;;13.10;;
34060;SDS011;20336;-33.424;-70.638;2023-08-07T01:33:16;22.83;;;12.83;;
34060;SDS011;20336;-33.424;-70.638;2023-08-07T01:35:49;21.40;;;12.97;;
34060;SDS011;20336;-33.424;-70.638;2023-08-07T01:38:18;25.83;;;13.50;;
34060;SDS011;20336;-33.424;-70.638;2023-08-07T01:40:47;22.40;;;13.23;;
34060;SDS011;20336;-33.424;-70.638;2023-08-07T01:43:15;22.47;;;12.90;;
34060;SDS011;20336;-33.424;-70.638;2023-08-07T01:45:44;20.97;;;12.87;;
34060;SDS011;20336;-33.424;-70.638;2023-08-07T01:48:11;21.20;;;13.47;;
34060;SDS011;20336;-33.424;-70.638;2023-08-07T01:50:38;22.10;;;13.00;;
34060;SDS011;20336;-33.424;-70.638;2023-08-07T01:53:05;24.50;;;13.43;;
34060;SDS011;20336;-33.424;-70.638;2023-08-07T01:55:32;21.33;;;13.90;;
34060;SDS011;20336;-33.424;-70.638;2023-08-07T01:57:59;24.07;;;14.30;;
34060;SDS011;20336;-33.424;-70.638;2023-08-07T02:00:26;24.10;;;14.47;;
34060;SDS011;20336;-33.424;-70.638;2023-08-07T02:02:53;23.90;;;14.20;;
34060;SDS011;20336;-33.424;-70.638;2023-08-07T02:05:20;25.60;;;15.10;;
34060;SDS011;20336;-33.424;-70.638;2023-08-07T02:07:47;23.53;;;14.80;;
34060;SDS011;20336;-33.424;-70.638;2023-08-07T02:10:13;24.40;;;14.80;;
34060;SDS011;20336;-33.424;-70.638;2023-08-07T02:12:40;25.37;;;14.63;;
34060;SDS011;20336;-33.424;-70.638;2023-08-07T02:15:07;31.13;;;15.77;;
34060;SDS011;20336;-33.424;-70.638;2023-08-07T02:17:34;26.50;;;16.00;;
34060;SDS011;20336;-33.424;-70.638;2023-08-07T02:20:04;24.27;;;15.03;;
34060;SDS011;20336;-33.424;-70.638;2023-08-07T02:22:31;27.10;;;15.63;;
34060;SDS011;20336;-33.424;-70.638;2023-08-07T02:24:58;25.97;;;15.50;;
34060;SDS011;20336;-33.424;-70.638;2023-08-07T02:27:25;25.67;;;15.37;;
34060;SDS011;20336;-33.424;-70.638;2023-08-07T02:29:52;25.97;;;15.70;;
34060;SDS011;20336;-33.424;-70.638;2023-08-07T02:32:19;27.10;;;15.97;;
34060;SDS011;20336;-33.424;-70.638;2023-08-07T02:34:46;25.70;;;15.27;;
34060;SDS011;20336;-33.424;-70.638;2023-08-07T02:37:13;27.20;;;16.43;;
34060;SDS011;20336;-33.424;-70.638;2023-08-07T02:39:41;29.90;;;16.43;;
34060;SDS011;20336;-33.424;-70.638;2023-08-07T02:42:08;25.67;;;15.13;;
34060;SDS011;20336;-33.424;-70.638;2023-08-07T02:44:35;30.03;;;17.10;;
34060;SDS011;20336;-33.424;-70.638;2023-08-07T02:47:02;27.33;;;16.60;;
34060;SDS011;20336;-33.424;-70.638;2023-08-07T02:49:29;30.97;;;16.40;;
34060;SDS011;20336;-33.424;-70.638;2023-08-07T02:51:56;33.10;;;17.47;;
34060;SDS011;20336;-33.424;-70.638;2023-08-07T02:54:23;29.30;;;16.20;;
34060;SDS011;20336;-33.424;-70.638;2023-08-07T02:56:50;32.70;;;17.43;;
34060;SDS011;20336;-33.424;-70.638;2023-08-07T02:59:16;33.83;;;19.07;;
34060;SDS011;20336;-33.424;-70.638;2023-08-07T03:01:43;36.87;;;20.37;;
34060;SDS011;20336;-33.424;-70.638;2023-08-07T03:04:10;33.03;;;18.60;;
34060;SDS011;20336;-33.424;-70.638;2023-08-07T03:06:38;31.47;;;18.60;;
34060;SDS011;20336;-33.424;-70.638;2023-08-07T03:09:05;33.27;;;18.53;;
34060;SDS011;20336;-33.424;-70.638;2023-08-07T03:11:31;33.00;;;18.93;;
34060;SDS011;20336;-33.424;-70.638;2023-08-07T03:13:58;30.23;;;17.30;;
34060;SDS011;20336;-33.424;-70.638;2023-08-07T03:16:25;33.93;;;20.40;;
34060;SDS011;20336;-33.424;-70.638;2023-08-07T03:18:52;37.40;;;19.93;;
34060;SDS011;20336;-33.424;-70.638;2023-08-07T03:21:19;39.27;;;19.37;;
34060;SDS011;20336;-33.424;-70.638;2023-08-07T03:23:46;39.93;;;19.90;;
34060;SDS011;20336;-33.424;-70.638;2023-08-07T03:26:13;37.73;;;19.90;;
34060;SDS011;20336;-33.424;-70.638;2023-08-07T03:28:40;35.90;;;19.20;;
34060;SDS011;20336;-33.424;-70.638;2023-08-07T03:31:06;35.40;;;19.87;;
34060;SDS011;20336;-33.424;-70.638;2023-08-07T03:33:33;34.47;;;20.23;;
34060;SDS011;20336;-33.424;-70.638;2023-08-07T03:36:00;37.33;;;21.60;;
34060;SDS011;20336;-33.424;-70.638;2023-08-07T03:38:27;35.63;;;20.03;;
34060;SDS011;20336;-33.424;-70.638;2023-08-07T03:40:55;35.07;;;20.77;;
34060;SDS011;20336;-33.424;-70.638;2023-08-07T03:43:21;36.63;;;20.37;;
34060;SDS011;20336;-33.424;-70.638;2023-08-07T03:45:53;36.97;;;20.70;;
34060;SDS011;20336;-33.424;-70.638;2023-08-07T03:48:21;36.00;;;20.53;;
34060;SDS011;20336;-33.424;-70.638;2023-08-07T03:50:48;34.77;;;21.10;;
34060;SDS011;20336;-33.424;-70.638;2023-08-07T03:53:15;37.53;;;21.37;;
34060;SDS011;20336;-33.424;-70.638;2023-08-07T03:55:42;37.73;;;20.20;;
34060;SDS011;20336;-33.424;-70.638;2023-08-07T03:58:10;38.53;;;21.33;;
34060;SDS011;20336;-33.424;-70.638;2023-08-07T04:00:37;36.40;;;21.30;;
34060;SDS011;20336;-33.424;-70.638;2023-08-07T04:03:04;34.70;;;20.90;;
34060;SDS011;20336;-33.424;-70.638;2023-08-07T04:05:32;41.13;;;22.77;;
34060;SDS011;20336;-33.424;-70.638;2023-08-07T04:07:59;40.50;;;22.03;;
34060;SDS011;20336;-33.424;-70.638;2023-08-07T04:10:26;45.57;;;23.27;;
34060;SDS011;20336;-33.424;-70.638;2023-08-07T04:12:53;40.73;;;23.40;;
34060;SDS011;20336;-33.424;-70.638;2023-08-07T04:15:20;44.73;;;24.23;;
34060;SDS011;20336;-33.424;-70.638;2023-08-07T04:17:47;42.47;;;24.90;;
34060;SDS011;20336;-33.424;-70.638;2023-08-07T04:20:14;50.77;;;26.67;;
34060;SDS011;20336;-33.424;-70.638;2023-08-07T04:22:41;41.50;;;23.43;;
34060;SDS011;20336;-33.424;-70.638;2023-08-07T04:25:08;45.43;;;24.80;;
34060;SDS011;20336;-33.424;-70.638;2023-08-07T04:27:35;46.17;;;24.10;;
34060;SDS011;20336;-33.424;-70.638;2023-08-07T04:30:01;49.27;;;25.90;;
34060;SDS011;20336;-33.424;-70.638;2023-08-07T04:32:28;41.67;;;24.53;;
34060;SDS011;20336;-33.424;-70.638;2023-08-07T04:34:55;41.47;;;23.67;;
34060;SDS011;20336;-33.424;-70.638;2023-08-07T04:37:22;43.23;;;22.90;;
34060;SDS011;20336;-33.424;-70.638;2023-08-07T04:39:49;42.53;;;23.60;;
34060;SDS011;20336;-33.424;-70.638;2023-08-07T04:42:16;40.17;;;23.03;;
34060;SDS011;20336;-33.424;-70.638;2023-08-07T04:44:43;46.43;;;23.93;;
34060;SDS011;20336;-33.424;-70.638;2023-08-07T04:47:10;38.90;;;22.90;;
34060;SDS011;20336;-33.424;-70.638;2023-08-07T04:49:37;41.83;;;24.13;;
34060;SDS011;20336;-33.424;-70.638;2023-08-07T04:52:04;41.57;;;23.27;;
34060;SDS011;20336;-33.424;-70.638;2023-08-07T04:54:31;45.57;;;25.67;;
34060;SDS011;20336;-33.424;-70.638;2023-08-07T04:56:57;44.17;;;25.30;;
34060;SDS011;20336;-33.424;-70.638;2023-08-07T04:59:24;42.17;;;24.80;;
34060;SDS011;20336;-33.424;-70.638;2023-08-07T05:01:52;47.03;;;24.43;;
34060;SDS011;20336;-33.424;-70.638;2023-08-07T05:04:19;46.40;;;25.17;;
34060;SDS011;20336;-33.424;-70.638;2023-08-07T05:06:45;48.07;;;25.17;;
34060;SDS011;20336;-33.424;-70.638;2023-08-07T05:09:14;50.93;;;26.33;;
34060;SDS011;20336;-33.424;-70.638;2023-08-07T05:11:42;49.50;;;27.77;;
34060;SDS011;20336;-33.424;-70.638;2023-08-07T05:14:09;50.40;;;27.60;;
34060;SDS011;20336;-33.424;-70.638;2023-08-07T05:16:36;51.13;;;27.10;;
34060;SDS011;20336;-33.424;-70.638;2023-08-07T05:19:03;48.17;;;26.83;;
34060;SDS011;20336;-33.424;-70.638;2023-08-07T05:21:29;45.80;;;26.57;;
34060;SDS011;20336;-33.424;-70.638;2023-08-07T05:23:56;49.97;;;26.83;;
34060;SDS011;20336;-33.424;-70.638;2023-08-07T05:26:23;48.87;;;26.50;;
34060;SDS011;20336;-33.424;-70.638;2023-08-07T05:28:50;50.93;;;28.53;;
34060;SDS011;20336;-33.424;-70.638;2023-08-07T05:31:17;50.50;;;27.23;;
34060;SDS011;20336;-33.424;-70.638;2023-08-07T05:33:44;52.53;;;27.73;;
34060;SDS011;20336;-33.424;-70.638;2023-08-07T05:36:11;51.13;;;27.67;;
34060;SDS011;20336;-33.424;-70.638;2023-08-07T05:38:38;49.63;;;26.40;;
34060;SDS011;20336;-33.424;-70.638;2023-08-07T05:41:05;47.90;;;26.13;;
34060;SDS011;20336;-33.424;-70.638;2023-08-07T05:43:31;50.43;;;27.73;;
34060;SDS011;20336;-33.424;-70.638;2023-08-07T05:45:58;51.07;;;27.80;;
34060;SDS011;20336;-33.424;-70.638;2023-08-07T05:48:25;54.37;;;28.80;;
34060;SDS011;20336;-33.424;-70.638;2023-08-07T05:50:52;48.77;;;27.00;;
34060;SDS011;20336;-33.424;-70.638;2023-08-07T05:53:19;55.90;;;28.10;;
34060;SDS011;20336;-33.424;-70.638;2023-08-07T05:55:46;53.37;;;27.83;;
34060;SDS011;20336;-33.424;-70.638;2023-08-07T05:58:13;54.57;;;28.53;;
34060;SDS011;20336;-33.424;-70.638;2023-08-07T06:00:40;46.80;;;26.50;;
34060;SDS011;20336;-33.424;-70.638;2023-08-07T06:03:07;52.47;;;28.17;;
34060;SDS011;20336;-33.424;-70.638;2023-08-07T06:05:34;54.53;;;27.80;;
34060;SDS011;20336;-33.424;-70.638;2023-08-07T06:08:01;62.17;;;32.10;;
34060;SDS011;20336;-33.424;-70.638;2023-08-07T06:10:28;53.73;;;27.70;;
34060;SDS011;20336;-33.424;-70.638;2023-08-07T06:12:54;55.07;;;29.40;;
34060;SDS011;20336;-33.424;-70.638;2023-08-07T06:15:21;59.77;;;30.43;;
34060;SDS011;20336;-33.424;-70.638;2023-08-07T06:17:48;59.43;;;32.13;;
34060;SDS011;20336;-33.424;-70.638;2023-08-07T06:20:17;65.23;;;33.70;;
34060;SDS011;20336;-33.424;-70.638;2023-08-07T06:22:44;66.00;;;33.13;;
34060;SDS011;20336;-33.424;-70.638;2023-08-07T06:25:11;66.00;;;33.03;;
34060;SDS011;20336;-33.424;-70.638;2023-08-07T06:27:38;65.37;;;31.90;;
34060;SDS011;20336;-33.424;-70.638;2023-08-07T06:30:05;63.87;;;32.13;;
34060;SDS011;20336;-33.424;-70.638;2023-08-07T06:32:32;67.83;;;34.37;;
34060;SDS011;20336;-33.424;-70.638;2023-08-07T06:34:59;64.13;;;33.43;;
34060;SDS011;20336;-33.424;-70.638;2023-08-07T06:37:26;63.77;;;32.83;;
34060;SDS011;20336;-33.424;-70.638;2023-08-07T06:39:53;67.97;;;33.77;;
34060;SDS011;20336;-33.424;-70.638;2023-08-07T06:42:20;62.80;;;32.07;;
34060;SDS011;20336;-33.424;-70.638;2023-08-07T06:44:47;69.40;;;34.97;;
34060;SDS011;20336;-33.424;-70.638;2023-08-07T06:47:14;72.73;;;35.00;;
34060;SDS011;20336;-33.424;-70.638;2023-08-07T06:49:41;64.17;;;34.10;;
34060;SDS011;20336;-33.424;-70.638;2023-08-07T06:52:08;70.67;;;34.27;;
34060;SDS011;20336;-33.424;-70.638;2023-08-07T06:54:35;65.30;;;32.40;;
34060;SDS011;20336;-33.424;-70.638;2023-08-07T06:57:02;73.20;;;35.53;;
34060;SDS011;20336;-33.424;-70.638;2023-08-07T06:59:28;62.47;;;32.80;;
34060;SDS011;20336;-33.424;-70.638;2023-08-07T07:01:55;75.57;;;36.00;;
34060;SDS011;20336;-33.424;-70.638;2023-08-07T07:04:22;69.27;;;33.17;;
34060;SDS011;20336;-33.424;-70.638;2023-08-07T07:06:49;73.97;;;34.60;;
34060;SDS011;20336;-33.424;-70.638;2023-08-07T07:09:16;77.77;;;37.30;;
34060;SDS011;20336;-33.424;-70.638;2023-08-07T07:11:43;68.57;;;36.80;;
34060;SDS011;20336;-33.424;-70.638;2023-08-07T07:14:10;79.53;;;38.73;;
34060;SDS011;20336;-33.424;-70.638;2023-08-07T07:16:37;80.20;;;36.33;;
34060;SDS011;20336;-33.424;-70.638;2023-08-07T07:19:04;71.60;;;36.80;;
34060;SDS011;20336;-33.424;-70.638;2023-08-07T07:21:35;82.50;;;36.13;;
34060;SDS011;20336;-33.424;-70.638;2023-08-07T07:24:02;69.53;;;33.80;;
34060;SDS011;20336;-33.424;-70.638;2023-08-07T07:26:29;77.10;;;38.60;;
34060;SDS011;20336;-33.424;-70.638;2023-08-07T07:28:56;79.10;;;37.70;;
34060;SDS011;20336;-33.424;-70.638;2023-08-07T07:31:23;72.07;;;33.83;;
34060;SDS011;20336;-33.424;-70.638;2023-08-07T07:33:50;85.43;;;38.00;;
34060;SDS011;20336;-33.424;-70.638;2023-08-07T07:36:18;74.23;;;36.27;;
34060;SDS011;20336;-33.424;-70.638;2023-08-07T07:38:46;77.63;;;37.30;;
34060;SDS011;20336;-33.424;-70.638;2023-08-07T07:41:14;81.77;;;39.00;;
34060;SDS011;20336;-33.424;-70.638;2023-08-07T07:43:41;79.40;;;37.30;;
34060;SDS011;20336;-33.424;-70.638;2023-08-07T07:46:08;75.30;;;37.17;;
34060;SDS011;20336;-33.424;-70.638;2023-08-07T07:48:35;83.90;;;39.53;;
34060;SDS011;20336;-33.424;-70.638;2023-08-07T07:51:02;75.60;;;38.47;;
34060;SDS011;20336;-33.424;-70.638;2023-08-07T07:53:29;72.97;;;37.13;;
34060;SDS011;20336;-33.424;-70.638;2023-08-07T07:55:56;82.97;;;38.97;;
34060;SDS011;20336;-33.424;-70.638;2023-08-07T07:58:23;76.43;;;37.57;;
34060;SDS011;20336;-33.424;-70.638;2023-08-07T08:00:50;78.27;;;38.63;;
34060;SDS011;20336;-33.424;-70.638;2023-08-07T08:03:20;87.53;;;40.70;;
34060;SDS011;20336;-33.424;-70.638;2023-08-07T08:05:49;82.53;;;38.67;;
34060;SDS011;20336;-33.424;-70.638;2023-08-07T08:08:16;82.40;;;38.73;;
34060;SDS011;20336;-33.424;-70.638;2023-08-07T08:10:44;80.53;;;38.33;;
34060;SDS011;20336;-33.424;-70.638;2023-08-07T08:13:13;81.37;;;40.53;;
34060;SDS011;20336;-33.424;-70.638;2023-08-07T08:15:40;78.57;;;38.00;;
34060;SDS011;20336;-33.424;-70.638;2023-08-07T08:18:08;74.73;;;37.07;;
34060;SDS011;20336;-33.424;-70.638;2023-08-07T08:20:35;78.87;;;39.27;;
34060;SDS011;20336;-33.424;-70.638;2023-08-07T08:23:02;79.60;;;39.47;;
34060;SDS011;20336;-33.424;-70.638;2023-08-07T08:25:29;80.67;;;38.30;;
34060;SDS011;20336;-33.424;-70.638;2023-08-07T08:27:56;88.13;;;40.23;;
34060;SDS011;20336;-33.424;-70.638;2023-08-07T08:30:23;85.77;;;39.70;;
34060;SDS011;20336;-33.424;-70.638;2023-08-07T08:32:49;78.23;;;38.93;;
34060;SDS011;20336;-33.424;-70.638;2023-08-07T08:35:17;74.97;;;37.00;;
34060;SDS011;20336;-33.424;-70.638;2023-08-07T08:37:44;75.83;;;36.73;;
34060;SDS011;20336;-33.424;-70.638;2023-08-07T08:40:10;79.97;;;38.07;;
34060;SDS011;20336;-33.424;-70.638;2023-08-07T08:42:40;83.10;;;39.87;;
34060;SDS011;20336;-33.424;-70.638;2023-08-07T08:45:09;74.20;;;37.70;;
34060;SDS011;20336;-33.424;-70.638;2023-08-07T08:47:36;78.93;;;37.80;;
34060;SDS011;20336;-33.424;-70.638;2023-08-07T08:50:06;86.00;;;38.60;;
34060;SDS011;20336;-33.424;-70.638;2023-08-07T08:52:34;83.33;;;38.20;;
34060;SDS011;20336;-33.424;-70.638;2023-08-07T08:55:02;81.23;;;38.90;;
34060;SDS011;20336;-33.424;-70.638;2023-08-07T08:57:29;77.10;;;37.87;;
34060;SDS011;20336;-33.424;-70.638;2023-08-07T08:59:56;79.87;;;37.37;;
34060;SDS011;20336;-33.424;-70.638;2023-08-07T09:02:23;76.70;;;37.93;;
34060;SDS011;20336;-33.424;-70.638;2023-08-07T09:04:51;80.60;;;38.50;;
34060;SDS011;20336;-33.424;-70.638;2023-08-07T09:07:18;80.23;;;38.37;;
34060;SDS011;20336;-33.424;-70.638;2023-08-07T09:09:46;76.87;;;37.30;;
34060;SDS011;20336;-33.424;-70.638;2023-08-07T09:12:19;81.27;;;38.97;;
34060;SDS011;20336;-33.424;-70.638;2023-08-07T09:14:49;82.87;;;39.93;;
34060;SDS011;20336;-33.424;-70.638;2023-08-07T09:17:16;75.87;;;36.60;;
34060;SDS011;20336;-33.424;-70.638;2023-08-07T09:19:43;80.53;;;37.33;;
34060;SDS011;20336;-33.424;-70.638;2023-08-07T09:22:11;87.17;;;39.27;;
34060;SDS011;20336;-33.424;-70.638;2023-08-07T09:24:38;85.53;;;39.03;;
34060;SDS011;20336;-33.424;-70.638;2023-08-07T09:27:06;83.43;;;38.17;;
34060;SDS011;20336;-33.424;-70.638;2023-08-07T09:29:33;85.73;;;40.90;;
34060;SDS011;20336;-33.424;-70.638;2023-08-07T09:32:12;77.30;;;37.03;;
34060;SDS011;20336;-33.424;-70.638;2023-08-07T09:34:39;82.40;;;39.60;;
34060;SDS011;20336;-33.424;-70.638;2023-08-07T09:37:07;82.20;;;39.87;;
34060;SDS011;20336;-33.424;-70.638;2023-08-07T09:39:35;79.43;;;37.93;;
34060;SDS011;20336;-33.424;-70.638;2023-08-07T09:42:04;86.13;;;39.63;;
34060;SDS011;20336;-33.424;-70.638;2023-08-07T09:44:35;83.40;;;39.37;;
34060;SDS011;20336;-33.424;-70.638;2023-08-07T09:47:20;85.23;;;41.07;;
34060;SDS011;20336;-33.424;-70.638;2023-08-07T09:49:47;83.83;;;38.10;;
34060;SDS011;20336;-33.424;-70.638;2023-08-07T09:52:14;96.33;;;41.43;;
34060;SDS011;20336;-33.424;-70.638;2023-08-07T09:54:41;77.30;;;37.77;;
34060;SDS011;20336;-33.424;-70.638;2023-08-07T09:57:08;72.13;;;35.27;;
34060;SDS011;20336;-33.424;-70.638;2023-08-07T09:59:35;78.57;;;37.60;;
34060;SDS011;20336;-33.424;-70.638;2023-08-07T10:02:03;72.27;;;35.70;;
34060;SDS011;20336;-33.424;-70.638;2023-08-07T10:04:30;79.37;;;36.73;;
34060;SDS011;20336;-33.424;-70.638;2023-08-07T10:06:57;131.80;;;50.40;;
34060;SDS011;20336;-33.424;-70.638;2023-08-07T10:09:24;103.30;;;44.33;;
34060;SDS011;20336;-33.424;-70.638;2023-08-07T10:11:53;78.80;;;36.77;;
34060;SDS011;20336;-33.424;-70.638;2023-08-07T10:14:21;76.53;;;35.03;;
34060;SDS011;20336;-33.424;-70.638;2023-08-07T10:16:48;87.03;;;37.43;;
34060;SDS011;20336;-33.424;-70.638;2023-08-07T10:19:16;80.67;;;35.87;;
34060;SDS011;20336;-33.424;-70.638;2023-08-07T10:21:43;78.90;;;38.57;;
34060;SDS011;20336;-33.424;-70.638;2023-08-07T10:24:11;80.03;;;37.90;;
34060;SDS011;20336;-33.424;-70.638;2023-08-07T10:26:40;83.93;;;38.40;;
34060;SDS011;20336;-33.424;-70.638;2023-08-07T10:29:09;78.43;;;37.03;;
34060;SDS011;20336;-33.424;-70.638;2023-08-07T10:31:37;82.43;;;37.77;;
34060;SDS011;20336;-33.424;-70.638;2023-08-07T10:34:04;81.27;;;37.37;;
34060;SDS011;20336;-33.424;-70.638;2023-08-07T10:36:35;83.50;;;38.93;;
34060;SDS011;20336;-33.424;-70.638;2023-08-07T10:39:14;86.43;;;39.70;;
34060;SDS011;20336;-33.424;-70.638;2023-08-07T10:41:45;77.67;;;36.33;;
34060;SDS011;20336;-33.424;-70.638;2023-08-07T10:44:23;79.70;;;38.53;;
34060;SDS011;20336;-33.424;-70.638;2023-08-07T10:49:38;81.70;;;38.77;;
34060;SDS011;20336;-33.424;-70.638;2023-08-07T10:52:10;78.80;;;37.67;;
34060;SDS011;20336;-33.424;-70.638;2023-08-07T10:54:56;81.60;;;39.33;;
34060;SDS011;20336;-33.424;-70.638;2023-08-07T10:57:23;87.30;;;38.70;;
34060;SDS011;20336;-33.424;-70.638;2023-08-07T11:02:25;84.70;;;39.53;;
34060;SDS011;20336;-33.424;-70.638;2023-08-07T11:04:53;89.73;;;41.57;;
34060;SDS011;20336;-33.424;-70.638;2023-08-07T11:07:24;86.30;;;38.20;;
34060;SDS011;20336;-33.424;-70.638;2023-08-07T11:09:51;84.63;;;38.53;;
34060;SDS011;20336;-33.424;-70.638;2023-08-07T11:12:18;84.57;;;39.13;;
34060;SDS011;20336;-33.424;-70.638;2023-08-07T11:14:45;93.30;;;40.97;;
34060;SDS011;20336;-33.424;-70.638;2023-08-07T11:17:12;77.30;;;36.60;;
34060;SDS011;20336;-33.424;-70.638;2023-08-07T11:19:39;84.80;;;38.77;;
34060;SDS011;20336;-33.424;-70.638;2023-08-07T11:22:06;80.47;;;36.17;;
34060;SDS011;20336;-33.424;-70.638;2023-08-07T11:24:33;86.53;;;40.43;;
34060;SDS011;20336;-33.424;-70.638;2023-08-07T11:27:00;83.83;;;37.53;;
34060;SDS011;20336;-33.424;-70.638;2023-08-07T11:29:27;82.23;;;38.47;;
34060;SDS011;20336;-33.424;-70.638;2023-08-07T11:31:56;84.83;;;38.00;;
34060;SDS011;20336;-33.424;-70.638;2023-08-07T11:34:23;101.87;;;41.97;;
34060;SDS011;20336;-33.424;-70.638;2023-08-07T11:36:51;86.63;;;40.47;;
34060;SDS011;20336;-33.424;-70.638;2023-08-07T11:39:20;92.23;;;41.77;;
34060;SDS011;20336;-33.424;-70.638;2023-08-07T11:41:50;90.00;;;39.57;;
34060;SDS011;20336;-33.424;-70.638;2023-08-07T11:44:18;91.47;;;42.47;;
34060;SDS011;20336;-33.424;-70.638;2023-08-07T11:46:45;95.10;;;41.27;;
34060;SDS011;20336;-33.424;-70.638;2023-08-07T11:49:12;103.40;;;44.50;;
34060;SDS011;20336;-33.424;-70.638;2023-08-07T11:51:39;105.50;;;46.03;;
34060;SDS011;20336;-33.424;-70.638;2023-08-07T11:54:06;94.37;;;43.23;;
34060;SDS011;20336;-33.424;-70.638;2023-08-07T11:56:33;87.83;;;41.83;;
34060;SDS011;20336;-33.424;-70.638;2023-08-07T11:59:00;87.13;;;42.03;;
34060;SDS011;20336;-33.424;-70.638;2023-08-07T12:01:29;91.20;;;42.20;;
34060;SDS011;20336;-33.424;-70.638;2023-08-07T12:06:32;95.00;;;42.80;;
34060;SDS011;20336;-33.424;-70.638;2023-08-07T12:08:59;103.00;;;43.20;;
34060;SDS011;20336;-33.424;-70.638;2023-08-07T12:11:26;99.33;;;41.73;;
34060;SDS011;20336;-33.424;-70.638;2023-08-07T12:13:55;91.30;;;39.77;;
34060;SDS011;20336;-33.424;-70.638;2023-08-07T12:16:22;87.20;;;40.90;;
34060;SDS011;20336;-33.424;-70.638;2023-08-07T12:18:50;84.03;;;40.23;;
34060;SDS011;20336;-33.424;-70.638;2023-08-07T12:21:21;75.03;;;36.20;;
34060;SDS011;20336;-33.424;-70.638;2023-08-07T12:23:51;78.10;;;38.67;;
34060;SDS011;20336;-33.424;-70.638;2023-08-07T12:26:18;85.07;;;42.27;;
34060;SDS011;20336;-33.424;-70.638;2023-08-07T12:28:44;86.67;;;43.10;;
34060;SDS011;20336;-33.424;-70.638;2023-08-07T12:31:11;87.53;;;40.77;;
34060;SDS011;20336;-33.424;-70.638;2023-08-07T12:33:38;82.27;;;40.00;;
34060;SDS011;20336;-33.424;-70.638;2023-08-07T12:36:05;81.77;;;39.47;;
34060;SDS011;20336;-33.424;-70.638;2023-08-07T12:38:33;82.50;;;38.90;;
34060;SDS011;20336;-33.424;-70.638;2023-08-07T12:41:00;82.00;;;38.63;;
34060;SDS011;20336;-33.424;-70.638;2023-08-07T12:43:28;77.97;;;39.23;;
34060;SDS011;20336;-33.424;-70.638;2023-08-07T12:45:55;93.43;;;42.80;;
34060;SDS011;20336;-33.424;-70.638;2023-08-07T12:48:22;79.33;;;38.60;;
34060;SDS011;20336;-33.424;-70.638;2023-08-07T12:50:52;79.73;;;38.43;;
34060;SDS011;20336;-33.424;-70.638;2023-08-07T12:53:21;70.27;;;37.77;;
34060;SDS011;20336;-33.424;-70.638;2023-08-07T12:55:48;81.13;;;40.43;;
34060;SDS011;20336;-33.424;-70.638;2023-08-07T12:58:17;71.63;;;36.33;;
34060;SDS011;20336;-33.424;-70.638;2023-08-07T13:00:47;73.53;;;36.27;;
34060;SDS011;20336;-33.424;-70.638;2023-08-07T13:03:14;75.53;;;36.33;;
34060;SDS011;20336;-33.424;-70.638;2023-08-07T13:05:40;77.63;;;38.17;;
34060;SDS011;20336;-33.424;-70.638;2023-08-07T13:08:07;74.07;;;36.57;;
34060;SDS011;20336;-33.424;-70.638;2023-08-07T13:10:34;69.70;;;35.30;;
34060;SDS011;20336;-33.424;-70.638;2023-08-07T13:13:01;76.30;;;36.00;;
34060;SDS011;20336;-33.424;-70.638;2023-08-07T13:15:30;75.10;;;37.20;;
34060;SDS011;20336;-33.424;-70.638;2023-08-07T13:17:57;71.37;;;35.30;;
34060;SDS011;20336;-33.424;-70.638;2023-08-07T13:20:26;70.27;;;34.63;;
34060;SDS011;20336;-33.424;-70.638;2023-08-07T13:22:53;70.77;;;37.17;;
34060;SDS011;20336;-33.424;-70.638;2023-08-07T13:28:24;66.77;;;34.93;;
34060;SDS011;20336;-33.424;-70.638;2023-08-07T13:30:51;60.70;;;32.73;;
34060;SDS011;20336;-33.424;-70.638;2023-08-07T13:33:19;67.23;;;34.03;;
34060;SDS011;20336;-33.424;-70.638;2023-08-07T13:35:46;59.87;;;32.17;;
34060;SDS011;20336;-33.424;-70.638;2023-08-07T13:38:13;69.53;;;35.97;;
34060;SDS011;20336;-33.424;-70.638;2023-08-07T13:40:40;59.93;;;32.57;;
34060;SDS011;20336;-33.424;-70.638;2023-08-07T13:43:09;65.73;;;35.13;;
34060;SDS011;20336;-33.424;-70.638;2023-08-07T13:45:36;56.20;;;31.07;;
34060;SDS011;20336;-33.424;-70.638;2023-08-07T13:48:03;60.00;;;32.27;;
34060;SDS011;20336;-33.424;-70.638;2023-08-07T13:50:32;61.80;;;32.37;;
34060;SDS011;20336;-33.424;-70.638;2023-08-07T13:52:59;63.87;;;32.43;;
34060;SDS011;20336;-33.424;-70.638;2023-08-07T13:55:26;61.60;;;31.83;;
34060;SDS011;20336;-33.424;-70.638;2023-08-07T13:57:57;57.93;;;31.93;;
34060;SDS011;20336;-33.424;-70.638;2023-08-07T14:00:24;70.15;;;32.40;;
34060;SDS011;20336;-33.424;-70.638;2023-08-07T14:02:51;60.22;;;33.03;;